Time;durP1;ratioP1;P1;durP2;ratioP2;P2;SDS_P1;SDS_P2;PMS_P1;PMS_P2;Temp;Humidity;BMP_temperature;BMP_pressure;BME280_temperature;BME280_humidity;BME280_pressure;Samples;Min_cycle;Max_cycle;Signal;HPM_P1;HPM_P2
2022/12/28 00:04:37;;;;;;;1.92;0.80;;;15.90;66.60;;;;;;10352407;28;20018;-60
2022/12/28 00:09:37;;;;;;;1.60;0.88;;;15.90;66.50;;;;;;10368683;28;20477;-60
2022/12/28 00:14:38;;;;;;;3.38;1.10;;;16.00;66.50;;;;;;10365016;28;20113;-60
2022/12/28 00:19:39;;;;;;;1.67;0.95;;;15.90;66.60;;;;;;10369087;28;20165;-59
2022/12/28 00:24:39;;;;;;;3.03;1.23;;;15.90;66.60;;;;;;10331902;28;20113;-60
2022/12/28 00:29:40;;;;;;;1.52;1.10;;;15.90;66.60;;;;;;10355440;28;20405;-60
2022/12/28 00:34:41;;;;;;;2.03;0.70;;;15.90;66.70;;;;;;10350430;28;20011;-61
2022/12/28 00:39:42;;;;;;;2.17;1.00;;;15.90;66.60;;;;;;10367066;28;20524;-60
2022/12/28 00:44:42;;;;;;;1.35;0.75;;;15.90;66.70;;;;;;10361687;28;20025;-59
2022/12/28 00:49:43;;;;;;;3.78;1.00;;;15.90;66.70;;;;;;10362106;28;20534;-61
2022/12/28 00:54:44;;;;;;;3.00;1.23;;;15.90;66.60;;;;;;10351416;28;20057;-61
2022/12/28 00:59:44;;;;;;;1.75;0.70;;;15.90;66.60;;;;;;10366492;28;20104;-60
2022/12/28 01:04:45;;;;;;;2.42;0.90;;;15.90;66.70;;;;;;10332157;28;20710;-60
2022/12/28 01:09:45;;;;;;;3.00;1.55;;;15.90;66.40;;;;;;10359357;28;20133;-60
2022/12/28 01:14:46;;;;;;;1.58;0.88;;;15.90;66.50;;;;;;10363301;28;20685;-59
2022/12/28 01:19:47;;;;;;;2.58;0.82;;;15.90;66.60;;;;;;10366435;28;20056;-61
2022/12/28 01:24:47;;;;;;;2.72;1.05;;;15.90;66.50;;;;;;10367365;28;20156;-61
2022/12/28 01:29:48;;;;;;;2.05;0.90;;;15.90;66.50;;;;;;10363061;28;20526;-60
2022/12/28 01:34:49;;;;;;;3.33;1.45;;;15.80;66.60;;;;;;10362221;28;20046;-60
2022/12/28 01:39:49;;;;;;;3.15;0.98;;;15.90;66.50;;;;;;10331324;28;20022;-60
2022/12/28 01:44:51;;;;;;;1.23;0.90;;;15.90;66.40;;;;;;10351629;28;20077;-60
2022/12/28 01:50:02;;;;;;;3.15;0.95;;;15.90;66.40;;;;;;10339104;28;20061;-60
2022/12/28 01:55:16;;;;;;;1.95;0.82;;;15.90;66.40;;;;;;10349710;28;20083;-60
2022/12/28 02:00:17;;;;;;;2.63;1.00;;;15.90;66.20;;;;;;10351080;28;20034;-60
2022/12/28 02:05:21;;;;;;;1.42;0.80;;;15.90;66.30;;;;;;10356516;28;20029;-60
2022/12/28 02:10:23;;;;;;;1.10;0.70;;;15.90;66.40;;;;;;10351545;28;20128;-60
2022/12/28 02:15:24;;;;;;;1.58;0.80;;;15.90;66.30;;;;;;10362475;28;20080;-61
2022/12/28 02:21:07;;;;;;;1.15;0.70;;;15.90;66.20;;;;;;10345384;28;20232;-59
2022/12/28 02:26:47;;;;;;;1.42;0.77;;;15.90;66.30;;;;;;10258722;28;20034;-60
2022/12/28 02:32:18;;;;;;;1.30;0.80;;;15.90;66.10;;;;;;10358270;28;20042;-60
2022/12/28 02:37:25;;;;;;;2.10;0.98;;;15.90;66.30;;;;;;10354947;28;20033;-60
2022/12/28 02:42:28;;;;;;;1.00;0.80;;;15.90;66.20;;;;;;10357193;28;20034;-60
2022/12/28 02:53:36;;;;;;;2.00;0.75;;;15.90;66.10;;;;;;10363154;28;20525;-61
2022/12/28 02:59:27;;;;;;;2.65;0.85;;;15.90;66.10;;;;;;10361533;28;20085;-61
2022/12/28 03:04:59;;;;;;;2.33;0.70;;;15.90;66.00;;;;;;10349646;28;20034;-60
2022/12/28 03:10:26;;;;;;;2.67;0.80;;;15.90;66.20;;;;;;10333968;28;20468;-61
2022/12/28 03:15:34;;;;;;;2.33;1.50;;;15.90;66.20;;;;;;10313390;28;20121;-60
2022/12/28 03:31:22;;;;;;;2.35;0.80;;;15.90;66.30;;;;;;10369603;28;20160;-61
2022/12/28 03:37:05;;;;;;;1.23;0.98;;;15.90;66.20;;;;;;10358444;28;20034;-60
2022/12/28 03:47:52;;;;;;;1.10;0.50;;;15.90;66.20;;;;;;10344764;28;20031;-60
2022/12/28 03:52:53;;;;;;;1.90;0.80;;;15.90;66.10;;;;;;10348666;28;20442;-61
2022/12/28 03:57:55;;;;;;;2.67;0.73;;;15.90;66.10;;;;;;10356660;28;20030;-60
2022/12/28 04:02:56;;;;;;;1.40;0.80;;;15.90;66.20;;;;;;10340789;28;20022;-60
2022/12/28 04:07:56;;;;;;;1.02;0.50;;;15.90;66.10;;;;;;10368365;28;20026;-58
2022/12/28 04:12:57;;;;;;;1.23;0.60;;;15.90;66.30;;;;;;10345925;28;20133;-59
2022/12/28 04:18:02;;;;;;;1.95;1.05;;;15.90;66.30;;;;;;10339958;28;20044;-59
2022/12/28 04:23:03;;;;;;;1.63;0.80;;;15.90;66.20;;;;;;10368060;28;20014;-60
2022/12/28 04:28:03;;;;;;;1.35;0.70;;;15.90;66.10;;;;;;10360416;28;20105;-61
2022/12/28 04:33:04;;;;;;;1.75;0.82;;;15.90;66.20;;;;;;10351650;28;20022;-59
2022/12/28 04:38:05;;;;;;;1.25;0.80;;;16.00;66.20;;;;;;10367015;28;20060;-60
2022/12/28 04:43:05;;;;;;;1.17;0.93;;;15.90;66.50;;;;;;10341674;28;20071;-60
2022/12/28 04:48:06;;;;;;;1.70;0.73;;;15.90;66.40;;;;;;10359163;28;20073;-58
2022/12/28 04:53:07;;;;;;;2.13;0.77;;;15.90;66.30;;;;;;10320008;28;20499;-60
2022/12/28 04:58:07;;;;;;;1.58;0.80;;;16.00;66.30;;;;;;10342890;28;20030;-61
2022/12/28 05:03:08;;;;;;;0.88;0.70;;;15.90;66.50;;;;;;10364181;28;20601;-58
2022/12/28 05:08:08;;;;;;;2.90;0.80;;;15.90;66.30;;;;;;10366824;28;20367;-61
2022/12/28 05:13:09;;;;;;;1.15;0.77;;;16.00;66.20;;;;;;10349928;28;20172;-59
2022/12/28 05:18:10;;;;;;;1.23;0.80;;;15.90;66.20;;;;;;10352920;28;20050;-60
2022/12/28 05:23:10;;;;;;;1.15;0.70;;;15.90;66.10;;;;;;10336706;28;20184;-60
2022/12/28 05:28:11;;;;;;;1.70;0.80;;;15.90;66.10;;;;;;10338566;28;20050;-60
2022/12/28 05:33:12;;;;;;;1.30;0.60;;;15.90;66.40;;;;;;10349858;28;20030;-60
2022/12/28 05:38:12;;;;;;;1.25;0.88;;;15.90;66.40;;;;;;10365716;28;20422;-60
2022/12/28 05:43:13;;;;;;;0.80;0.50;;;15.90;66.40;;;;;;10356043;28;21650;-61
2022/12/28 05:48:14;;;;;;;1.45;0.73;;;15.90;66.50;;;;;;10352049;28;20097;-60
2022/12/28 05:53:14;;;;;;;1.35;0.80;;;15.90;66.40;;;;;;10353158;28;20169;-60
2022/12/28 05:58:15;;;;;;;1.20;0.63;;;15.90;66.30;;;;;;10357024;28;20053;-59
2022/12/28 06:03:15;;;;;;;1.00;0.70;;;15.90;66.30;;;;;;10351341;28;20121;-59
2022/12/28 06:08:16;;;;;;;1.30;0.60;;;15.90;66.50;;;;;;10353806;28;20117;-59
2022/12/28 06:13:17;;;;;;;1.17;0.63;;;15.90;66.40;;;;;;10362000;28;20592;-60
2022/12/28 06:18:17;;;;;;;1.33;0.70;;;15.90;66.20;;;;;;10363407;28;20351;-59
2022/12/28 06:23:18;;;;;;;1.25;0.80;;;15.90;66.50;;;;;;10360525;28;20046;-61
2022/12/28 06:28:19;;;;;;;0.75;0.60;;;15.90;66.40;;;;;;10356181;28;20030;-59
2022/12/28 06:33:19;;;;;;;1.92;0.50;;;15.90;66.30;;;;;;10355676;28;20485;-59
2022/12/28 06:38:20;;;;;;;1.23;0.68;;;16.00;66.50;;;;;;10339359;28;20050;-60
2022/12/28 06:43:21;;;;;;;0.98;0.60;;;16.10;66.70;;;;;;10351249;28;20050;-58
2022/12/28 06:48:21;;;;;;;1.27;0.77;;;16.20;66.50;;;;;;10316741;28;20042;-60
2022/12/28 06:53:24;;;;;;;1.80;0.80;;;16.10;66.70;;;;;;10346478;28;20025;-60
2022/12/28 06:58:27;;;;;;;1.50;0.63;;;16.00;66.90;;;;;;10354206;28;20029;-60
2022/12/28 07:03:27;;;;;;;3.30;0.98;;;15.90;67.00;;;;;;10322909;28;20032;-59
2022/12/28 07:08:29;;;;;;;2.30;0.60;;;15.80;67.50;;;;;;10337161;28;20035;-60
2022/12/28 07:13:29;;;;;;;3.85;0.80;;;15.80;68.00;;;;;;10321076;28;20041;-59
2022/12/28 07:18:31;;;;;;;3.55;0.80;;;15.70;67.90;;;;;;10320289;28;20053;-60
2022/12/28 07:23:33;;;;;;;2.20;0.50;;;15.70;68.00;;;;;;10320052;28;20061;-60
2022/12/28 07:28:40;;;;;;;0.93;0.50;;;15.60;68.10;;;;;;10319230;28;20108;-60
2022/12/28 07:33:41;;;;;;;1.40;0.68;;;15.60;68.10;;;;;;10319055;28;20026;-59
2022/12/28 07:38:42;;;;;;;1.48;0.60;;;15.60;68.10;;;;;;10318640;28;20124;-59
2022/12/28 07:43:43;;;;;;;1.60;0.50;;;15.60;68.20;;;;;;10312015;28;20026;-60
2022/12/28 07:48:44;;;;;;;1.58;0.40;;;15.50;68.30;;;;;;10358835;28;20026;-60
2022/12/28 07:53:49;;;;;;;0.82;0.50;;;15.50;68.20;;;;;;10346849;28;20474;-60
2022/12/28 07:58:59;;;;;;;1.40;1.00;;;15.60;68.10;;;;;;10342330;28;20021;-60
2022/12/28 08:04:03;;;;;;;1.38;0.90;;;15.60;67.90;;;;;;10358252;28;20389;-60
2022/12/28 08:09:06;;;;;;;0.60;0.50;;;15.60;67.90;;;;;;10357930;28;20049;-60
2022/12/28 08:14:08;;;;;;;1.10;0.50;;;15.60;68.00;;;;;;10364421;28;20087;-57
2022/12/28 08:19:09;;;;;;;1.30;0.60;;;15.60;67.80;;;;;;10361160;28;20022;-59
2022/12/28 08:24:15;;;;;;;0.90;0.43;;;15.60;67.70;;;;;;10363101;28;20049;-58
2022/12/28 08:29:20;;;;;;;0.60;0.45;;;15.70;67.70;;;;;;10364087;28;20021;-59
2022/12/28 08:34:25;;;;;;;0.98;0.60;;;15.60;67.80;;;;;;10367569;28;20026;-60
2022/12/28 08:39:25;;;;;;;0.50;0.40;;;15.60;67.80;;;;;;10366274;28;20584;-59
2022/12/28 08:44:26;;;;;;;0.98;0.60;;;15.60;67.70;;;;;;10366128;28;20053;-60
2022/12/28 08:49:27;;;;;;;1.25;0.50;;;15.60;67.70;;;;;;10321960;28;20458;-60
2022/12/28 08:54:27;;;;;;;0.90;0.50;;;15.60;67.70;;;;;;10349109;28;20612;-60
2022/12/28 08:59:28;;;;;;;1.48;0.40;;;15.60;67.70;;;;;;10353250;28;20054;-59
2022/12/28 09:04:29;;;;;;;1.80;0.65;;;15.60;67.80;;;;;;10364875;28;20065;-60
2022/12/28 09:09:29;;;;;;;0.80;0.50;;;15.60;67.60;;;;;;10356491;28;20057;-59
2022/12/28 09:14:30;;;;;;;0.80;0.40;;;15.60;67.60;;;;;;10326154;28;20105;-59
2022/12/28 09:19:31;;;;;;;1.15;0.60;;;15.60;67.60;;;;;;10360439;28;20105;-60
2022/12/28 09:24:31;;;;;;;0.93;0.45;;;15.60;67.60;;;;;;10364015;28;20105;-60
2022/12/28 09:29:32;;;;;;;1.23;0.63;;;15.60;67.50;;;;;;10363839;28;20505;-60
2022/12/28 09:34:34;;;;;;;1.02;0.55;;;15.60;67.60;;;;;;10365321;28;20038;-59
2022/12/28 09:39:35;;;;;;;0.85;0.65;;;15.60;67.50;;;;;;10350891;28;20023;-60
2022/12/28 09:45:02;;;;;;;2.60;0.65;;;15.60;67.70;;;;;;10363325;28;20478;-58
2022/12/28 09:50:28;;;;;;;0.90;0.50;;;15.60;67.70;;;;;;10362123;28;20025;-60
2022/12/28 09:55:31;;;;;;;1.10;0.40;;;15.60;67.60;;;;;;10324751;28;20113;-60
2022/12/28 10:00:47;;;;;;;0.88;0.60;;;15.60;67.50;;;;;;10323983;28;20023;-59
2022/12/28 10:05:50;;;;;;;0.80;0.50;;;15.60;67.50;;;;;;10321980;28;20069;-60
2022/12/28 10:10:52;;;;;;;0.60;0.50;;;15.70;67.40;;;;;;10321970;28;20068;-58
2022/12/28 10:15:53;;;;;;;0.95;0.50;;;15.60;67.30;;;;;;10305357;28;20018;-59
2022/12/28 10:20:55;;;;;;;0.63;0.32;;;15.60;67.40;;;;;;10305910;28;20018;-59
2022/12/28 10:25:59;;;;;;;1.27;0.50;;;15.60;67.50;;;;;;10321634;28;20093;-59
2022/12/28 10:31:06;;;;;;;0.85;0.47;;;15.60;68.20;;;;;;10305703;28;20030;-60
2022/12/28 10:36:15;;;;;;;1.13;0.55;;;15.70;67.50;;;;;;10321556;28;20019;-60
2022/12/28 10:41:17;;;;;;;1.20;0.57;;;15.60;67.40;;;;;;10321122;28;20109;-59
2022/12/28 10:46:23;;;;;;;0.80;0.40;;;15.60;67.40;;;;;;10352334;28;20022;-60
2022/12/28 10:51:28;;;;;;;2.13;0.43;;;15.60;67.40;;;;;;10363110;28;20030;-60
2022/12/28 10:56:43;;;;;;;0.90;0.47;;;15.60;67.30;;;;;;10348263;28;20029;-59
2022/12/28 11:01:43;;;;;;;0.73;0.40;;;15.60;67.30;;;;;;10346171;28;20022;-60
2022/12/28 11:06:58;;;;;;;0.63;0.40;;;15.60;67.40;;;;;;10362709;28;20022;-60
2022/12/28 11:12:27;;;;;;;0.73;0.50;;;15.60;67.30;;;;;;10360760;28;20049;-59
2022/12/28 11:17:35;;;;;;;0.98;0.30;;;15.60;67.30;;;;;;10362197;28;20045;-60
2022/12/28 11:22:36;;;;;;;0.82;0.50;;;15.70;67.30;;;;;;10322334;28;20049;-59
2022/12/28 11:27:37;;;;;;;0.93;0.40;;;15.70;67.20;;;;;;10320078;28;20108;-60
2022/12/28 11:32:49;;;;;;;1.38;0.50;;;15.70;67.20;;;;;;10333193;28;20040;-60
2022/12/28 11:38:00;;;;;;;0.35;0.30;;;15.70;67.20;;;;;;10348123;28;20017;-60
2022/12/28 11:43:01;;;;;;;1.38;0.50;;;15.70;67.20;;;;;;10344906;28;20375;-59
2022/12/28 11:48:42;;;;;;;0.93;0.55;;;15.60;67.20;;;;;;10367718;28;20026;-59
2022/12/28 11:53:43;;;;;;;1.55;0.65;;;15.60;67.30;;;;;;10369579;28;20040;-60
2022/12/28 11:58:59;;;;;;;1.67;0.40;;;15.60;67.40;;;;;;10369110;28;20022;-58
2022/12/28 12:03:59;;;;;;;0.47;0.30;;;15.60;67.50;;;;;;10367381;28;20022;-60
2022/12/28 12:09:00;;;;;;;0.80;0.40;;;15.60;67.40;;;;;;10363871;28;20044;-59
2022/12/28 12:14:01;;;;;;;0.40;0.30;;;15.60;67.40;;;;;;10339524;28;20041;-60
2022/12/28 12:19:05;;;;;;;0.45;0.30;;;15.60;67.50;;;;;;10327890;28;20482;-57
2022/12/28 12:24:31;;;;;;;0.40;0.38;;;15.50;67.50;;;;;;10326576;28;20034;-60
2022/12/28 12:29:38;;;;;;;0.52;0.40;;;15.60;67.40;;;;;;10326860;28;20034;-59
2022/12/28 12:34:52;;;;;;;1.02;0.40;;;15.60;67.40;;;;;;10341395;28;20033;-60
2022/12/28 12:40:11;;;;;;;1.10;0.70;;;15.60;67.30;;;;;;10366806;28;20029;-60
2022/12/28 12:45:51;;;;;;;0.95;0.45;;;15.60;67.20;;;;;;10368230;28;20088;-60
2022/12/28 12:51:25;;;;;;;0.82;0.60;;;15.70;67.30;;;;;;10354707;28;20031;-57
2022/12/28 12:56:53;;;;;;;2.05;0.50;;;15.60;67.20;;;;;;10364367;28;20029;-60
2022/12/28 13:02:11;;;;;;;0.43;0.30;;;15.60;67.40;;;;;;10365415;28;20037;-60
2022/12/28 13:07:25;;;;;;;0.60;0.40;;;15.60;67.30;;;;;;10347009;28;20022;-58
2022/12/28 13:12:26;;;;;;;0.93;0.65;;;15.60;67.20;;;;;;10356574;28;20429;-60
2022/12/28 13:17:28;;;;;;;1.05;0.35;;;15.60;67.30;;;;;;10364450;28;20018;-59
2022/12/28 13:22:31;;;;;;;0.95;0.60;;;15.50;67.30;;;;;;10364619;28;20481;-60
2022/12/28 13:27:35;;;;;;;1.23;0.40;;;15.60;67.50;;;;;;10355597;28;20482;-60
2022/12/28 13:32:36;;;;;;;0.40;0.30;;;15.60;67.40;;;;;;10351901;28;20042;-59
2022/12/28 13:37:36;;;;;;;1.15;0.32;;;15.60;67.20;;;;;;10365244;28;20572;-60
2022/12/28 13:43:31;;;;;;;0.88;0.30;;;15.60;67.20;;;;;;10347652;28;20402;-60
2022/12/28 13:48:32;;;;;;;0.80;0.30;;;15.60;67.20;;;;;;10355405;28;20022;-59
2022/12/28 13:53:34;;;;;;;0.73;0.40;;;15.60;67.20;;;;;;10323806;28;20553;-59
2022/12/28 13:58:47;;;;;;;0.82;0.45;;;15.60;67.20;;;;;;10323315;28;20500;-60
2022/12/28 14:03:50;;;;;;;0.90;0.40;;;15.60;67.30;;;;;;10335326;28;20102;-60
2022/12/28 14:08:51;;;;;;;0.75;0.52;;;15.60;67.10;;;;;;10323314;28;20030;-60
2022/12/28 14:13:53;;;;;;;1.15;0.30;;;15.60;67.00;;;;;;10339424;28;20038;-58
2022/12/28 14:18:54;;;;;;;0.40;0.35;;;15.60;67.00;;;;;;10343707;28;20381;-60
2022/12/28 14:24:05;;;;;;;0.40;0.40;;;15.60;67.00;;;;;;10321986;28;20568;-59
2022/12/28 14:29:27;;;;;;;1.30;0.65;;;15.60;67.00;;;;;;10322664;28;20057;-59
2022/12/28 14:34:36;;;;;;;0.85;0.60;;;15.60;67.10;;;;;;10306592;28;20088;-59
2022/12/28 14:39:43;;;;;;;0.43;0.33;;;15.60;67.10;;;;;;10305750;28;20054;-59
2022/12/28 14:44:44;;;;;;;1.90;0.95;;;15.60;66.80;;;;;;10323428;28;20428;-59
2022/12/28 14:49:45;;;;;;;0.82;0.40;;;15.60;67.00;;;;;;10356291;28;20085;-60
2022/12/28 14:54:50;;;;;;;1.02;0.40;;;15.60;66.80;;;;;;10361626;28;20054;-60
2022/12/28 15:00:01;;;;;;;0.43;0.32;;;15.60;67.00;;;;;;10362342;28;20501;-60
2022/12/28 15:05:02;;;;;;;0.45;0.30;;;15.60;66.90;;;;;;10344702;28;20420;-58
2022/12/28 15:10:03;;;;;;;0.77;0.30;;;15.60;66.90;;;;;;10362160;28;20050;-60
2022/12/28 15:15:04;;;;;;;0.73;0.57;;;15.50;67.20;;;;;;10362201;28;20030;-60
2022/12/28 15:20:06;;;;;;;0.47;0.32;;;15.60;66.80;;;;;;10363064;28;20026;-60
2022/12/28 15:25:09;;;;;;;0.93;0.30;;;15.60;66.80;;;;;;10353438;28;20018;-59
2022/12/28 15:30:10;;;;;;;0.38;0.30;;;15.60;66.60;;;;;;10369017;28;20029;-60
2022/12/28 15:35:11;;;;;;;1.38;0.57;;;15.70;66.60;;;;;;10370198;28;20045;-60
2022/12/28 15:40:11;;;;;;;1.10;0.40;;;15.60;67.10;;;;;;10368954;28;20045;-58
2022/12/28 15:45:15;;;;;;;1.52;0.50;;;15.60;66.50;;;;;;10368163;28;20022;-60
2022/12/28 15:50:16;;;;;;;0.88;0.50;;;15.60;66.50;;;;;;10368173;28;20026;-59
2022/12/28 15:55:16;;;;;;;1.27;0.40;;;15.70;66.50;;;;;;10344995;28;20153;-60
2022/12/28 16:00:19;;;;;;;0.98;0.40;;;15.70;66.40;;;;;;10355686;28;20028;-61
2022/12/28 16:05:20;;;;;;;0.85;0.35;;;15.60;66.40;;;;;;10368090;28;20022;-60
2022/12/28 16:10:21;;;;;;;0.75;0.50;;;15.60;66.50;;;;;;10321983;28;20517;-58
2022/12/28 16:15:22;;;;;;;0.90;0.50;;;15.70;66.60;;;;;;10326519;28;20054;-60
2022/12/28 16:20:23;;;;;;;0.50;0.40;;;15.70;66.40;;;;;;10326144;28;20624;-60
2022/12/28 16:25:23;;;;;;;1.60;0.75;;;15.70;66.50;;;;;;10324698;28;20533;-60
2022/12/28 16:30:24;;;;;;;1.83;0.50;;;15.60;66.40;;;;;;10357434;28;20065;-59
2022/12/28 16:35:25;;;;;;;0.68;0.50;;;15.70;66.40;;;;;;10364967;28;20045;-60
2022/12/28 16:40:25;;;;;;;2.28;1.25;;;15.70;66.30;;;;;;10314451;28;20018;-58
2022/12/28 16:45:26;;;;;;;0.90;0.60;;;15.70;66.30;;;;;;10348259;28;20553;-60
2022/12/28 16:50:27;;;;;;;0.63;0.47;;;15.70;66.30;;;;;;10355144;28;20503;-59
2022/12/28 16:55:29;;;;;;;3.55;0.63;;;15.60;66.40;;;;;;10351449;28;20109;-59
2022/12/28 17:00:30;;;;;;;1.23;0.77;;;15.60;66.50;;;;;;10334790;28;20033;-60
2022/12/28 17:05:34;;;;;;;2.60;1.02;;;15.50;66.80;;;;;;10363557;28;20057;-61
2022/12/28 17:10:40;;;;;;;2.95;1.10;;;15.70;65.80;;;;;;10332790;28;20045;-60
2022/12/28 17:15:41;;;;;;;1.38;0.80;;;16.00;65.70;;;;;;10340239;28;20021;-60
2022/12/28 17:20:44;;;;;;;2.28;0.63;;;16.20;65.10;;;;;;10329616;28;20018;-59
2022/12/28 17:25:51;;;;;;;2.60;0.70;;;16.20;64.90;;;;;;10364265;28;20025;-59
2022/12/28 17:31:07;;;;;;;2.10;0.80;;;16.20;64.90;;;;;;10352762;28;20026;-58
2022/12/28 17:36:08;;;;;;;1.85;0.80;;;16.10;65.30;;;;;;10349448;28;20115;-58
2022/12/28 17:41:14;;;;;;;2.78;0.80;;;16.10;65.60;;;;;;10324384;28;20097;-59
2022/12/28 17:46:14;;;;;;;1.67;0.88;;;16.00;65.80;;;;;;10356539;28;20026;-59
2022/12/28 17:51:15;;;;;;;3.75;0.75;;;16.00;65.80;;;;;;10359006;28;20042;-59
2022/12/28 17:56:16;;;;;;;1.77;0.82;;;16.00;65.90;;;;;;10357451;28;20542;-60
2022/12/28 18:01:17;;;;;;;2.80;0.70;;;16.00;66.00;;;;;;10341159;28;20030;-59
2022/12/28 18:06:18;;;;;;;0.82;0.55;;;15.90;65.80;;;;;;10350049;28;20026;-59
2022/12/28 18:11:18;;;;;;;1.48;0.63;;;15.90;66.10;;;;;;10352336;28;20053;-59
2022/12/28 18:16:20;;;;;;;3.55;0.80;;;15.70;66.50;;;;;;10348439;28;20036;-59
2022/12/28 18:21:22;;;;;;;2.28;0.93;;;15.70;66.70;;;;;;10354728;28;20503;-59
2022/12/28 18:26:25;;;;;;;2.40;1.23;;;15.60;66.90;;;;;;10360574;28;20329;-59
2022/12/28 18:31:25;;;;;;;2.10;0.75;;;15.80;66.10;;;;;;10344023;28;20072;-59
2022/12/28 18:36:26;;;;;;;2.28;0.80;;;15.80;66.00;;;;;;10377029;28;20438;-59
2022/12/28 18:41:26;;;;;;;2.60;0.80;;;15.80;66.20;;;;;;10359961;28;20330;-58
2022/12/28 18:46:27;;;;;;;1.48;0.95;;;15.70;66.50;;;;;;10359762;28;20032;-59
2022/12/28 18:51:28;;;;;;;1.92;0.70;;;15.60;66.70;;;;;;10347514;28;20066;-59
2022/12/28 18:56:28;;;;;;;1.58;0.50;;;15.70;66.00;;;;;;10359337;28;20042;-59
2022/12/28 19:01:29;;;;;;;0.80;0.45;;;15.80;65.60;;;;;;10334137;28;20136;-59
2022/12/28 19:06:31;;;;;;;1.23;0.70;;;15.90;65.50;;;;;;10338792;28;20035;-59
2022/12/28 19:11:33;;;;;;;2.13;1.00;;;15.90;65.50;;;;;;10351536;28;20081;-60
2022/12/28 19:16:34;;;;;;;1.77;0.90;;;15.90;65.30;;;;;;10317836;28;20045;-59
2022/12/28 19:21:38;;;;;;;2.85;1.30;;;15.90;65.40;;;;;;10317830;28;20022;-60
2022/12/28 19:26:38;;;;;;;2.40;1.13;;;15.90;65.50;;;;;;10313905;28;20045;-60
2022/12/28 19:31:39;;;;;;;1.20;0.90;;;15.80;65.60;;;;;;10348720;28;20049;-59
2022/12/28 19:36:40;;;;;;;1.08;0.60;;;15.90;65.50;;;;;;10342549;28;20188;-59
2022/12/28 19:41:40;;;;;;;1.08;0.50;;;15.80;65.70;;;;;;10357330;28;20036;-60
2022/12/28 19:46:41;;;;;;;3.42;0.60;;;15.70;66.00;;;;;;10357195;28;20018;-60
2022/12/28 19:51:42;;;;;;;2.25;0.52;;;15.80;66.40;;;;;;10351449;28;20477;-58
2022/12/28 19:56:43;;;;;;;0.80;0.70;;;15.90;66.10;;;;;;10358850;28;20472;-58
2022/12/28 20:01:44;;;;;;;1.58;0.65;;;15.90;66.20;;;;;;10353702;28;20058;-60
2022/12/28 20:06:44;;;;;;;1.13;0.57;;;15.90;66.10;;;;;;10360929;28;20037;-60
2022/12/28 20:11:46;;;;;;;2.92;0.90;;;15.80;66.30;;;;;;10366525;28;20493;-60
2022/12/28 20:16:47;;;;;;;2.63;1.02;;;15.80;66.80;;;;;;10367080;28;20014;-59
2022/12/28 20:21:48;;;;;;;2.65;0.80;;;15.80;66.60;;;;;;10364454;28;20512;-59
2022/12/28 20:26:49;;;;;;;1.63;0.98;;;15.70;67.00;;;;;;10366759;28;20025;-58
2022/12/28 20:31:49;;;;;;;1.20;0.70;;;15.70;67.20;;;;;;10330855;28;20539;-58
2022/12/28 20:36:50;;;;;;;1.58;0.68;;;15.60;67.30;;;;;;10364776;28;20022;-58
2022/12/28 20:47:10;;;;;;;2.77;0.70;;;15.50;67.50;;;;;;10364640;28;20030;-59
2022/12/28 20:52:11;;;;;;;1.83;0.70;;;15.70;66.70;;;;;;10363323;28;20108;-59
2022/12/28 20:57:12;;;;;;;1.30;0.50;;;15.70;66.80;;;;;;10360653;28;20115;-60
2022/12/28 21:02:12;;;;;;;0.60;0.50;;;15.70;66.60;;;;;;10361831;28;20044;-59
2022/12/28 21:07:13;;;;;;;1.05;0.63;;;15.80;66.10;;;;;;10346924;28;20037;-59
2022/12/28 21:12:14;;;;;;;1.58;0.70;;;15.90;66.20;;;;;;10346989;28;20189;-59
2022/12/28 21:17:16;;;;;;;1.40;0.80;;;15.80;66.00;;;;;;10349962;28;20061;-59
2022/12/28 21:22:17;;;;;;;2.15;0.68;;;15.90;65.90;;;;;;10346518;28;20525;-59
2022/12/28 21:27:17;;;;;;;1.20;0.60;;;15.90;65.90;;;;;;10351099;28;20030;-59
2022/12/28 21:32:18;;;;;;;1.77;0.80;;;15.90;66.30;;;;;;10362812;28;20050;-59
2022/12/28 21:37:34;;;;;;;1.92;0.50;;;15.70;66.50;;;;;;10359946;28;20054;-59
2022/12/28 21:42:35;;;;;;;1.25;0.50;;;15.80;66.40;;;;;;10364002;28;20021;-59
2022/12/28 21:47:36;;;;;;;1.55;0.70;;;15.80;66.30;;;;;;10351991;28;20029;-59
2022/12/28 21:52:37;;;;;;;1.48;0.50;;;15.80;66.50;;;;;;10336887;28;20038;-59
2022/12/28 21:57:37;;;;;;;1.58;0.75;;;15.80;66.30;;;;;;10344350;28;20100;-57
2022/12/28 22:12:33;;;;;;;0.95;0.70;;;15.90;66.20;;;;;;10366909;28;20053;-58
2022/12/28 22:13:17;;;;;;;2.10;0.80;;;15.80;66.50;;;;;;10351741;28;20056;-57
2022/12/28 22:18:21;;;;;;;2.22;0.80;;;15.80;66.90;;;;;;10340260;28;20046;-59
2022/12/28 22:23:22;;;;;;;2.00;1.27;;;15.80;66.60;;;;;;10325517;28;20014;-59
2022/12/28 22:28:23;;;;;;;1.08;0.40;;;15.90;66.40;;;;;;10350079;28;20037;-58
2022/12/28 22:33:23;;;;;;;0.50;0.50;;;15.80;66.50;;;;;;10336728;28;20502;-59
2022/12/28 22:38:26;;;;;;;1.60;0.60;;;15.70;66.90;;;;;;10339222;28;20050;-59
2022/12/28 22:43:26;;;;;;;1.20;0.60;;;15.70;67.50;;;;;;10357078;28;20021;-59
2022/12/28 22:48:27;;;;;;;1.45;0.80;;;15.90;66.50;;;;;;10351636;28;20076;-58
2022/12/28 22:53:28;;;;;;;4.82;0.50;;;15.90;66.50;;;;;;10323574;28;20042;-58
2022/12/28 22:58:29;;;;;;;1.88;0.73;;;15.80;66.80;;;;;;10358424;28;20018;-59
2022/12/28 23:03:30;;;;;;;1.60;0.60;;;15.70;67.10;;;;;;10351852;28;20457;-58
2022/12/28 23:08:31;;;;;;;0.70;0.45;;;15.80;66.60;;;;;;10344509;28;20558;-59
2022/12/28 23:13:32;;;;;;;0.93;0.50;;;15.90;66.50;;;;;;10348728;28;20057;-59
2022/12/28 23:29:12;;;;;;;0.50;0.50;;;15.80;66.80;;;;;;10351164;28;20635;-59
2022/12/28 23:34:12;;;;;;;0.93;0.50;;;15.90;66.60;;;;;;10339422;28;20097;-59
2022/12/28 23:39:13;;;;;;;2.05;0.52;;;15.80;66.70;;;;;;10343255;28;20431;-59
2022/12/28 23:44:20;;;;;;;0.90;0.50;;;15.80;67.00;;;;;;10370232;28;20103;-58
2022/12/28 23:49:20;;;;;;;0.90;0.60;;;15.80;67.00;;;;;;10362453;28;20373;-58
2022/12/28 23:54:21;;;;;;;0.80;0.50;;;15.80;66.60;;;;;;10343274;28;20023;-58
2022/12/28 23:59:22;;;;;;;0.85;0.40;;;15.90;66.60;;;;;;10330804;28;20688;-59
